Time;durP1;ratioP1;P1;durP2;ratioP2;P2;SDS_P1;SDS_P2;PMS_P1;PMS_P2;Temp;Humidity;BMP_temperature;BMP_pressure;BME280_temperature;BME280_humidity;BME280_pressure;Samples;Min_cycle;Max_cycle;Signal;HPM_P1;HPM_P2
2021/08/18 00:01:17;;;;;;;22.47;17.30;;;;;;;;;;2628945;30;20370;-76
2021/08/18 00:03:43;;;;;;;25.57;17.27;;;;;;;;;;2628310;30;20357;-76
2021/08/18 00:06:09;;;;;;;24.27;16.83;;;;;;;;;;2629135;30;20926;-76
2021/08/18 00:08:36;;;;;;;24.47;17.37;;;;;;;;;;2628246;38;20406;-76
2021/08/18 00:11:02;;;;;;;25.10;17.87;;;;;;;;;;2628038;30;20346;-76
2021/08/18 00:13:28;;;;;;;21.57;15.70;;;;;;;;;;2628615;38;20388;-76
2021/08/18 00:15:56;;;;;;;20.93;14.53;;;;;;;;;;2629462;31;20382;-76
2021/08/18 00:18:22;;;;;;;22.47;15.57;;;;;;;;;;2629606;30;20473;-76
2021/08/18 00:20:48;;;;;;;21.90;15.50;;;;;;;;;;2630396;30;20487;-76
2021/08/18 00:23:15;;;;;;;21.80;15.00;;;;;;;;;;2629264;30;20366;-76
2021/08/18 00:25:41;;;;;;;22.47;14.90;;;;;;;;;;2629100;30;20960;-76
2021/08/18 00:28:07;;;;;;;20.43;14.00;;;;;;;;;;2629118;38;20382;-76
2021/08/18 00:30:34;;;;;;;25.03;15.50;;;;;;;;;;2629729;30;20357;-77
2021/08/18 00:33:00;;;;;;;21.43;15.63;;;;;;;;;;2628851;38;20401;-76
2021/08/18 00:35:26;;;;;;;21.43;15.47;;;;;;;;;;2628708;30;20484;-76
2021/08/18 00:37:52;;;;;;;22.70;13.87;;;;;;;;;;2628575;30;20918;-76
2021/08/18 00:40:18;;;;;;;20.80;15.43;;;;;;;;;;2629246;30;20475;-77
2021/08/18 00:42:45;;;;;;;21.43;15.00;;;;;;;;;;2630233;30;20358;-76
2021/08/18 00:45:12;;;;;;;20.83;15.20;;;;;;;;;;2628592;30;20398;-76
2021/08/18 00:47:50;;;;;;;25.63;15.57;;;;;;;;;;2628687;38;20377;-76
2021/08/18 00:50:21;;;;;;;25.30;17.07;;;;;;;;;;2629556;30;20376;-76
2021/08/18 00:52:47;;;;;;;21.90;17.00;;;;;;;;;;2629777;30;20418;-76
2021/08/18 00:55:15;;;;;;;26.50;15.03;;;;;;;;;;2628084;30;20386;-76
2021/08/18 00:57:41;;;;;;;22.20;16.20;;;;;;;;;;2628884;38;20376;-76
2021/08/18 01:00:08;;;;;;;26.03;17.00;;;;;;;;;;2629179;30;20805;-76
2021/08/18 01:05:04;;;;;;;24.10;16.17;;;;;;;;;;2634049;30;20544;-79
2021/08/18 01:07:30;;;;;;;18.23;15.40;;;;;;;;;;2633934;30;20470;-78
2021/08/18 01:09:58;;;;;;;22.20;16.67;;;;;;;;;;2633199;30;20381;-78
2021/08/18 01:12:25;;;;;;;22.70;16.43;;;;;;;;;;2637500;30;20852;-78
2021/08/18 01:14:51;;;;;;;19.77;15.57;;;;;;;;;;2636860;38;20509;-78
2021/08/18 01:17:17;;;;;;;23.13;17.17;;;;;;;;;;2636766;30;20370;-79
2021/08/18 01:19:43;;;;;;;21.90;16.40;;;;;;;;;;2638520;38;20373;-78
2021/08/18 01:22:10;;;;;;;36.07;21.53;;;;;;;;;;2637274;30;20439;-79
2021/08/18 01:24:36;;;;;;;25.03;18.80;;;;;;;;;;2634861;38;20383;-79
2021/08/18 01:27:03;;;;;;;24.50;18.00;;;;;;;;;;2637514;30;20354;-79
2021/08/18 01:29:29;;;;;;;20.50;16.33;;;;;;;;;;2636525;30;20379;-78
2021/08/18 01:31:57;;;;;;;20.90;17.87;;;;;;;;;;2636444;38;20366;-79
2021/08/18 01:34:23;;;;;;;21.53;16.97;;;;;;;;;;2635677;30;20397;-79
2021/08/18 01:36:49;;;;;;;26.33;18.73;;;;;;;;;;2638279;30;20361;-79
2021/08/18 01:39:15;;;;;;;24.93;18.37;;;;;;;;;;2635077;38;21378;-79
2021/08/18 01:41:42;;;;;;;25.37;19.00;;;;;;;;;;2636758;30;20381;-78
2021/08/18 01:44:08;;;;;;;23.17;17.90;;;;;;;;;;2636062;30;20367;-78
2021/08/18 01:46:35;;;;;;;29.73;16.60;;;;;;;;;;2634790;38;20947;-79
2021/08/18 01:49:02;;;;;;;21.10;17.17;;;;;;;;;;2637433;38;20344;-79
2021/08/18 01:51:28;;;;;;;28.50;18.63;;;;;;;;;;2634912;30;20389;-79
2021/08/18 01:53:54;;;;;;;26.53;18.13;;;;;;;;;;2636980;38;20416;-78
2021/08/18 01:56:21;;;;;;;23.60;18.87;;;;;;;;;;2635419;38;20449;-79
2021/08/18 01:58:50;;;;;;;23.63;19.10;;;;;;;;;;2637517;30;20364;-78
2021/08/18 02:01:18;;;;;;;23.67;19.37;;;;;;;;;;2635632;30;20490;-78
2021/08/18 02:03:44;;;;;;;27.03;19.17;;;;;;;;;;2636934;30;20496;-78
2021/08/18 02:06:11;;;;;;;24.03;17.87;;;;;;;;;;2637685;30;20356;-79
2021/08/18 02:08:37;;;;;;;26.13;18.23;;;;;;;;;;2635706;30;20408;-79
2021/08/18 02:11:04;;;;;;;25.47;19.07;;;;;;;;;;2635112;38;20416;-78
2021/08/18 02:13:30;;;;;;;22.27;16.67;;;;;;;;;;2634642;30;20361;-78
2021/08/18 02:15:57;;;;;;;25.43;19.00;;;;;;;;;;2637026;30;21177;-78
2021/08/18 02:18:23;;;;;;;24.90;19.07;;;;;;;;;;2633667;38;20375;-78
2021/08/18 02:20:49;;;;;;;23.73;18.63;;;;;;;;;;2635639;30;20409;-77
2021/08/18 02:23:16;;;;;;;27.10;18.87;;;;;;;;;;2638312;30;20354;-78
2021/08/18 02:25:42;;;;;;;24.53;19.13;;;;;;;;;;2632571;30;20394;-78
2021/08/18 02:28:08;;;;;;;25.20;19.10;;;;;;;;;;2633675;30;20887;-78
2021/08/18 02:30:35;;;;;;;28.77;21.07;;;;;;;;;;2631462;30;20376;-79
2021/08/18 02:33:02;;;;;;;30.57;20.00;;;;;;;;;;2631043;38;20409;-79
2021/08/18 02:35:28;;;;;;;29.00;20.57;;;;;;;;;;2629528;38;20366;-79
2021/08/18 02:37:55;;;;;;;26.13;19.27;;;;;;;;;;2633527;30;20875;-79
2021/08/18 02:40:21;;;;;;;24.40;19.40;;;;;;;;;;2632217;38;20378;-79
2021/08/18 02:42:48;;;;;;;28.77;20.10;;;;;;;;;;2632069;30;20874;-79
2021/08/18 02:45:14;;;;;;;24.50;18.97;;;;;;;;;;2629712;38;20373;-79
2021/08/18 02:47:42;;;;;;;29.20;21.70;;;;;;;;;;2633006;30;20344;-78
2021/08/18 02:50:19;;;;;;;32.83;20.83;;;;;;;;;;2633456;38;20970;-79
2021/08/18 02:52:45;;;;;;;28.07;18.63;;;;;;;;;;2632710;30;20409;-78
2021/08/18 02:55:13;;;;;;;24.70;19.57;;;;;;;;;;2633434;30;20375;-79
2021/08/18 02:57:39;;;;;;;30.57;20.00;;;;;;;;;;2631172;30;20381;-78
2021/08/18 03:00:06;;;;;;;29.20;20.77;;;;;;;;;;2634687;30;20798;-79
2021/08/18 03:02:33;;;;;;;29.67;20.87;;;;;;;;;;2632778;30;20378;-79
2021/08/18 03:04:59;;;;;;;33.50;19.20;;;;;;;;;;2631840;38;20385;-79
2021/08/18 03:07:25;;;;;;;26.90;19.43;;;;;;;;;;2631363;38;20378;-79
2021/08/18 03:09:51;;;;;;;33.90;20.73;;;;;;;;;;2631828;38;20720;-78
2021/08/18 03:12:18;;;;;;;32.17;20.97;;;;;;;;;;2632611;38;21152;-78
2021/08/18 03:14:44;;;;;;;31.80;20.03;;;;;;;;;;2632055;30;20386;-78
2021/08/18 03:17:11;;;;;;;34.43;20.37;;;;;;;;;;2631656;30;20383;-78
2021/08/18 03:19:37;;;;;;;28.77;19.60;;;;;;;;;;2630229;30;20394;-79
2021/08/18 03:22:03;;;;;;;40.43;19.03;;;;;;;;;;2632250;30;20972;-79
2021/08/18 03:24:29;;;;;;;33.83;21.57;;;;;;;;;;2633160;30;20840;-79
2021/08/18 03:26:56;;;;;;;29.50;21.20;;;;;;;;;;2632814;30;20922;-79
2021/08/18 03:29:22;;;;;;;30.53;20.70;;;;;;;;;;2631992;30;20386;-79
2021/08/18 03:31:48;;;;;;;28.67;19.30;;;;;;;;;;2631042;30;20415;-79
2021/08/18 03:34:14;;;;;;;30.33;21.07;;;;;;;;;;2630211;38;20393;-78
2021/08/18 03:36:41;;;;;;;29.30;20.57;;;;;;;;;;2631072;30;20363;-79
2021/08/18 03:39:07;;;;;;;30.30;19.57;;;;;;;;;;2630104;38;20484;-80
2021/08/18 03:41:33;;;;;;;29.60;21.07;;;;;;;;;;2632110;30;20390;-79
2021/08/18 03:43:59;;;;;;;29.93;21.10;;;;;;;;;;2631430;30;20362;-79
2021/08/18 03:46:25;;;;;;;30.00;20.40;;;;;;;;;;2629555;38;20374;-79
2021/08/18 03:48:51;;;;;;;36.97;22.90;;;;;;;;;;2632183;30;20830;-79
2021/08/18 03:51:18;;;;;;;27.40;20.97;;;;;;;;;;2632541;30;20788;-79
2021/08/18 03:53:45;;;;;;;29.40;21.00;;;;;;;;;;2630835;38;20869;-79
2021/08/18 03:56:11;;;;;;;33.80;20.10;;;;;;;;;;2630352;30;20493;-79
2021/08/18 03:58:37;;;;;;;30.27;21.27;;;;;;;;;;2633183;30;20954;-79
2021/08/18 04:01:03;;;;;;;34.63;20.90;;;;;;;;;;2631144;38;20373;-80
2021/08/18 04:03:32;;;;;;;36.40;21.10;;;;;;;;;;2631840;30;20538;-78
2021/08/18 04:05:58;;;;;;;36.07;20.10;;;;;;;;;;2632170;30;20426;-79
2021/08/18 04:08:24;;;;;;;34.17;23.43;;;;;;;;;;2629880;38;20544;-79
2021/08/18 04:10:51;;;;;;;33.33;22.70;;;;;;;;;;2634967;30;20532;-78
2021/08/18 04:13:17;;;;;;;30.90;21.90;;;;;;;;;;2633005;30;20412;-79
2021/08/18 04:15:43;;;;;;;36.40;21.60;;;;;;;;;;2628784;38;20521;-79
2021/08/18 04:18:11;;;;;;;34.80;21.40;;;;;;;;;;2631651;30;20485;-79
2021/08/18 04:20:37;;;;;;;36.53;22.20;;;;;;;;;;2632176;38;20372;-78
2021/08/18 04:23:04;;;;;;;30.70;21.67;;;;;;;;;;2630964;30;20415;-80
2021/08/18 04:25:30;;;;;;;28.03;20.53;;;;;;;;;;2629082;38;20384;-78
2021/08/18 04:27:57;;;;;;;27.50;20.30;;;;;;;;;;2631093;38;20387;-79
2021/08/18 04:30:23;;;;;;;30.67;21.13;;;;;;;;;;2630405;38;20510;-79
2021/08/18 04:32:49;;;;;;;39.73;22.13;;;;;;;;;;2631715;30;21377;-79
2021/08/18 04:35:16;;;;;;;30.67;21.60;;;;;;;;;;2631196;30;20375;-78
2021/08/18 04:37:42;;;;;;;30.13;21.07;;;;;;;;;;2633443;30;20931;-79
2021/08/18 04:40:12;;;;;;;29.73;20.97;;;;;;;;;;2629569;38;20404;-79
2021/08/18 04:42:40;;;;;;;28.10;20.93;;;;;;;;;;2633481;30;20840;-78
2021/08/18 04:45:07;;;;;;;33.80;22.13;;;;;;;;;;2628874;38;20391;-80
2021/08/18 04:47:33;;;;;;;29.67;19.17;;;;;;;;;;2631655;30;20912;-78
2021/08/18 04:50:00;;;;;;;28.67;19.30;;;;;;;;;;2630313;30;20377;-78
2021/08/18 04:52:26;;;;;;;22.00;15.20;;;;;;;;;;2630716;30;20395;-78
2021/08/18 04:54:53;;;;;;;18.53;14.03;;;;;;;;;;2630344;38;20362;-79
2021/08/18 04:57:19;;;;;;;18.83;12.17;;;;;;;;;;2631627;30;20381;-79
2021/08/18 04:59:46;;;;;;;13.80;11.57;;;;;;;;;;2635126;30;21262;-79
2021/08/18 05:02:12;;;;;;;13.90;10.87;;;;;;;;;;2632109;30;20374;-79
2021/08/18 05:04:38;;;;;;;12.80;10.87;;;;;;;;;;2631468;38;20379;-79
2021/08/18 05:07:04;;;;;;;15.20;10.83;;;;;;;;;;2632113;30;20788;-79
2021/08/18 05:09:30;;;;;;;11.93;9.43;;;;;;;;;;2634768;30;20377;-80
2021/08/18 05:11:57;;;;;;;9.90;7.60;;;;;;;;;;2633140;30;20370;-79
2021/08/18 05:14:25;;;;;;;10.43;7.43;;;;;;;;;;2631577;30;20935;-80
2021/08/18 05:16:51;;;;;;;9.40;6.70;;;;;;;;;;2630719;38;20379;-80
2021/08/18 05:19:18;;;;;;;9.20;7.40;;;;;;;;;;2632966;38;20383;-80
2021/08/18 05:21:46;;;;;;;8.73;7.37;;;;;;;;;;2632217;38;20477;-79
2021/08/18 05:24:12;;;;;;;10.07;7.03;;;;;;;;;;2630897;30;20373;-80
2021/08/18 05:26:39;;;;;;;8.73;6.13;;;;;;;;;;2629615;38;20379;-79
2021/08/18 05:29:05;;;;;;;8.03;6.00;;;;;;;;;;2632058;30;20378;-79
2021/08/18 05:31:31;;;;;;;10.50;6.53;;;;;;;;;;2631157;30;20374;-80
2021/08/18 05:33:57;;;;;;;7.57;6.87;;;;;;;;;;2631113;38;20393;-80
2021/08/18 05:36:24;;;;;;;7.70;6.73;;;;;;;;;;2629514;30;20429;-79
2021/08/18 05:38:50;;;;;;;8.70;7.03;;;;;;;;;;2630156;30;20873;-79
2021/08/18 05:41:16;;;;;;;8.00;5.93;;;;;;;;;;2631944;30;20378;-80
2021/08/18 05:43:42;;;;;;;12.03;7.73;;;;;;;;;;2632312;30;21013;-79
2021/08/18 05:46:08;;;;;;;7.00;5.97;;;;;;;;;;2629908;38;20378;-77
2021/08/18 05:48:35;;;;;;;9.47;7.57;;;;;;;;;;2631160;30;20910;-79
2021/08/18 05:51:01;;;;;;;9.17;6.50;;;;;;;;;;2630458;38;20382;-78
2021/08/18 05:53:28;;;;;;;7.93;5.93;;;;;;;;;;2629592;38;20866;-79
2021/08/18 05:55:54;;;;;;;7.50;6.30;;;;;;;;;;2630964;30;20402;-79
2021/08/18 05:58:20;;;;;;;8.33;5.70;;;;;;;;;;2632243;30;20398;-79
2021/08/18 06:00:47;;;;;;;7.33;5.90;;;;;;;;;;2631273;38;20511;-79
2021/08/18 06:03:13;;;;;;;7.07;6.23;;;;;;;;;;2630480;38;20394;-79
2021/08/18 06:05:39;;;;;;;6.67;4.83;;;;;;;;;;2631698;30;20414;-79
2021/08/18 06:08:06;;;;;;;5.60;5.03;;;;;;;;;;2631907;38;20391;-79
2021/08/18 06:10:32;;;;;;;5.77;5.10;;;;;;;;;;2634502;30;20374;-79
2021/08/18 06:13:01;;;;;;;6.60;5.00;;;;;;;;;;2636519;30;20372;-80
2021/08/18 06:15:28;;;;;;;7.10;5.33;;;;;;;;;;2630098;38;20991;-79
2021/08/18 06:17:54;;;;;;;7.00;5.50;;;;;;;;;;2631595;30;20385;-79
2021/08/18 06:20:20;;;;;;;7.43;5.63;;;;;;;;;;2634326;30;20382;-78
2021/08/18 06:22:46;;;;;;;9.40;5.40;;;;;;;;;;2630384;38;20370;-79
2021/08/18 06:25:13;;;;;;;6.70;6.10;;;;;;;;;;2632202;30;20378;-79
2021/08/18 06:27:39;;;;;;;9.00;6.70;;;;;;;;;;2635576;30;20613;-81
2021/08/18 06:30:06;;;;;;;11.60;7.10;;;;;;;;;;2631768;38;20378;-80
2021/08/18 06:32:32;;;;;;;6.87;5.80;;;;;;;;;;2631058;30;20378;-79
2021/08/18 06:35:00;;;;;;;9.13;7.00;;;;;;;;;;2630175;38;20522;-80
2021/08/18 06:37:26;;;;;;;8.73;7.83;;;;;;;;;;2633152;30;20382;-80
2021/08/18 06:39:53;;;;;;;8.10;6.80;;;;;;;;;;2634661;30;20881;-79
2021/08/18 06:42:19;;;;;;;9.57;8.03;;;;;;;;;;2632837;30;20576;-79
2021/08/18 06:44:48;;;;;;;9.80;7.27;;;;;;;;;;2630727;38;20417;-80
2021/08/18 06:47:14;;;;;;;7.33;6.63;;;;;;;;;;2635171;30;20402;-80
2021/08/18 06:49:41;;;;;;;13.33;7.87;;;;;;;;;;2630698;30;20385;-80
2021/08/18 06:52:07;;;;;;;10.13;7.30;;;;;;;;;;2630620;38;20546;-79
2021/08/18 06:54:33;;;;;;;10.43;7.43;;;;;;;;;;2630608;38;20391;-79
2021/08/18 06:57:00;;;;;;;8.87;6.97;;;;;;;;;;2632110;30;20411;-80
2021/08/18 06:59:26;;;;;;;13.07;8.10;;;;;;;;;;2632709;38;20780;-80
2021/08/18 07:01:52;;;;;;;10.07;8.33;;;;;;;;;;2632090;30;20372;-79
2021/08/18 07:04:18;;;;;;;10.97;8.20;;;;;;;;;;2631881;30;20386;-80
2021/08/18 07:06:44;;;;;;;9.43;8.23;;;;;;;;;;2630821;38;20979;-80
2021/08/18 07:09:10;;;;;;;11.70;9.60;;;;;;;;;;2630886;38;20418;-79
2021/08/18 07:11:36;;;;;;;12.10;9.57;;;;;;;;;;2630171;38;21040;-80
2021/08/18 07:14:03;;;;;;;9.23;8.33;;;;;;;;;;2631592;30;20378;-79
2021/08/18 07:16:30;;;;;;;14.90;8.90;;;;;;;;;;2631097;38;21246;-78
2021/08/18 07:18:57;;;;;;;11.70;8.13;;;;;;;;;;2631301;38;20967;-79
2021/08/18 07:21:24;;;;;;;9.60;8.60;;;;;;;;;;2630435;38;20394;-79
2021/08/18 07:23:52;;;;;;;10.70;8.40;;;;;;;;;;2631614;30;20371;-79
2021/08/18 07:26:18;;;;;;;8.87;6.93;;;;;;;;;;2631987;30;20373;-80
2021/08/18 07:28:44;;;;;;;9.60;8.53;;;;;;;;;;2630329;38;20373;-79
2021/08/18 07:31:11;;;;;;;12.93;11.10;;;;;;;;;;2631226;38;20446;-79
2021/08/18 07:33:37;;;;;;;9.30;8.40;;;;;;;;;;2632994;30;20891;-80
2021/08/18 07:36:04;;;;;;;14.80;12.13;;;;;;;;;;2629816;30;20401;-78
2021/08/18 07:38:30;;;;;;;14.50;11.47;;;;;;;;;;2629506;38;20987;-79
2021/08/18 07:40:56;;;;;;;14.63;12.60;;;;;;;;;;2630562;30;20915;-79
2021/08/18 07:43:23;;;;;;;17.90;13.57;;;;;;;;;;2631710;30;20495;-79
2021/08/18 07:45:49;;;;;;;17.80;15.33;;;;;;;;;;2628734;30;20435;-78
2021/08/18 07:48:15;;;;;;;18.37;14.83;;;;;;;;;;2629960;30;20414;-79
2021/08/18 07:50:43;;;;;;;21.17;14.40;;;;;;;;;;2628946;38;20417;-79
2021/08/18 07:53:09;;;;;;;21.63;17.73;;;;;;;;;;2631855;38;20386;-79
2021/08/18 07:55:35;;;;;;;21.77;15.40;;;;;;;;;;2631823;30;20489;-79
2021/08/18 07:58:01;;;;;;;24.63;18.37;;;;;;;;;;2630723;38;20360;-78
2021/08/18 08:00:27;;;;;;;19.53;17.30;;;;;;;;;;2632952;30;20927;-79
2021/08/18 08:02:53;;;;;;;18.33;15.57;;;;;;;;;;2630377;38;20525;-79
2021/08/18 08:05:19;;;;;;;23.10;16.70;;;;;;;;;;2632361;30;20396;-79
2021/08/18 08:07:46;;;;;;;18.70;15.73;;;;;;;;;;2631529;38;20374;-78
2021/08/18 08:10:13;;;;;;;27.20;17.50;;;;;;;;;;2632273;38;20951;-78
2021/08/18 08:12:39;;;;;;;22.37;15.60;;;;;;;;;;2630854;38;20778;-78
2021/08/18 08:15:06;;;;;;;22.80;16.60;;;;;;;;;;2631311;30;20385;-79
2021/08/18 08:17:33;;;;;;;21.43;17.37;;;;;;;;;;2629285;30;20376;-79
2021/08/18 08:19:59;;;;;;;18.43;15.73;;;;;;;;;;2633464;30;20352;-78
2021/08/18 08:22:25;;;;;;;21.17;17.53;;;;;;;;;;2629386;30;20417;-79
2021/08/18 08:24:52;;;;;;;19.40;16.13;;;;;;;;;;2631644;30;20374;-80
2021/08/18 08:27:18;;;;;;;20.70;17.03;;;;;;;;;;2629100;38;20356;-78
2021/08/18 08:29:44;;;;;;;20.47;16.87;;;;;;;;;;2633701;30;20486;-79
2021/08/18 08:32:10;;;;;;;20.10;15.33;;;;;;;;;;2632474;38;20451;-80
2021/08/18 08:34:37;;;;;;;18.13;15.63;;;;;;;;;;2631280;38;20382;-79
2021/08/18 08:37:03;;;;;;;19.00;15.60;;;;;;;;;;2630293;30;20381;-78
2021/08/18 08:39:29;;;;;;;16.33;14.63;;;;;;;;;;2631711;30;20365;-79
2021/08/18 08:41:55;;;;;;;16.90;14.83;;;;;;;;;;2632326;38;20402;-78
2021/08/18 08:44:22;;;;;;;16.57;14.30;;;;;;;;;;2631028;38;20461;-77
2021/08/18 08:46:50;;;;;;;15.00;13.30;;;;;;;;;;2632547;30;20450;-79
2021/08/18 08:49:17;;;;;;;15.83;12.60;;;;;;;;;;2632012;38;20341;-78
2021/08/18 08:51:47;;;;;;;13.83;12.53;;;;;;;;;;2631468;30;20421;-78
2021/08/18 08:54:14;;;;;;;14.17;12.33;;;;;;;;;;2631839;38;20373;-79
2021/08/18 08:56:40;;;;;;;15.73;12.30;;;;;;;;;;2630202;38;20413;-79
2021/08/18 08:59:06;;;;;;;13.47;10.60;;;;;;;;;;2631052;30;20370;-79
2021/08/18 09:01:52;;;;;;;12.67;11.43;;;;;;;;;;2632618;38;20512;-78
2021/08/18 09:04:29;;;;;;;14.40;11.03;;;;;;;;;;2629711;30;20401;-78
2021/08/18 09:07:08;;;;;;;11.17;10.07;;;;;;;;;;2629443;38;20373;-79
2021/08/18 09:09:35;;;;;;;16.03;10.87;;;;;;;;;;2629872;30;20429;-79
2021/08/18 09:12:05;;;;;;;12.23;10.90;;;;;;;;;;2628143;30;20380;-78
2021/08/18 09:14:31;;;;;;;12.07;10.80;;;;;;;;;;2632118;30;20861;-77
2021/08/18 09:16:57;;;;;;;11.70;10.60;;;;;;;;;;2630282;38;20408;-77
2021/08/18 09:19:29;;;;;;;12.60;11.30;;;;;;;;;;2631244;38;20379;-78
2021/08/18 09:21:55;;;;;;;12.67;11.50;;;;;;;;;;2630033;30;20459;-78
2021/08/18 09:24:23;;;;;;;13.07;11.80;;;;;;;;;;2629440;30;20390;-78
2021/08/18 09:26:51;;;;;;;15.87;13.10;;;;;;;;;;2631377;30;20907;-78
2021/08/18 09:29:29;;;;;;;14.10;12.90;;;;;;;;;;2629089;30;20912;-78
2021/08/18 09:31:56;;;;;;;17.00;13.37;;;;;;;;;;2632144;30;20377;-78
2021/08/18 09:34:22;;;;;;;13.20;11.90;;;;;;;;;;2629866;30;20383;-78
2021/08/18 09:36:48;;;;;;;16.30;12.97;;;;;;;;;;2631700;30;20505;-78
2021/08/18 09:39:19;;;;;;;14.63;13.17;;;;;;;;;;2630896;38;20424;-78
2021/08/18 09:41:45;;;;;;;15.50;11.80;;;;;;;;;;2631878;30;20416;-78
2021/08/18 09:44:11;;;;;;;14.33;12.80;;;;;;;;;;2634693;30;20373;-78
2021/08/18 09:46:37;;;;;;;15.83;12.23;;;;;;;;;;2628821;38;20372;-78
2021/08/18 09:49:07;;;;;;;11.73;10.43;;;;;;;;;;2635131;30;20977;-78
2021/08/18 09:51:33;;;;;;;12.10;10.90;;;;;;;;;;2630025;38;20385;-78
2021/08/18 09:54:11;;;;;;;12.80;11.50;;;;;;;;;;2631160;30;21322;-78
2021/08/18 09:56:41;;;;;;;13.63;11.53;;;;;;;;;;2634335;38;20352;-78
2021/08/18 09:59:08;;;;;;;11.67;10.67;;;;;;;;;;2630542;38;20373;-78
2021/08/18 10:01:34;;;;;;;12.60;11.40;;;;;;;;;;2630919;30;20382;-78
2021/08/18 10:04:00;;;;;;;12.70;11.13;;;;;;;;;;2629047;38;20952;-78
2021/08/18 10:06:27;;;;;;;15.57;12.40;;;;;;;;;;2631306;30;20404;-78
2021/08/18 10:08:55;;;;;;;13.83;12.30;;;;;;;;;;2631156;30;21341;-78
2021/08/18 10:11:23;;;;;;;13.93;12.40;;;;;;;;;;2630770;30;20398;-77
2021/08/18 10:13:49;;;;;;;14.87;13.30;;;;;;;;;;2629803;38;20390;-77
2021/08/18 10:16:16;;;;;;;15.40;13.73;;;;;;;;;;2631350;30;20379;-77
2021/08/18 10:18:43;;;;;;;14.40;13.00;;;;;;;;;;2629884;31;20387;-78
2021/08/18 10:21:17;;;;;;;14.60;13.07;;;;;;;;;;2632704;30;20990;-77
2021/08/18 10:23:46;;;;;;;15.47;13.87;;;;;;;;;;2629843;30;20398;-78
2021/08/18 10:26:30;;;;;;;15.43;14.00;;;;;;;;;;2630210;30;20401;-77
2021/08/18 10:29:00;;;;;;;15.23;13.67;;;;;;;;;;2631384;30;20376;-78
2021/08/18 10:31:45;;;;;;;21.13;14.70;;;;;;;;;;2629702;38;20432;-78
2021/08/18 10:34:24;;;;;;;16.30;14.50;;;;;;;;;;2629857;30;20373;-78
2021/08/18 10:36:51;;;;;;;20.13;16.07;;;;;;;;;;2631637;38;20370;-79
2021/08/18 10:41:59;;;;;;;16.37;14.77;;;;;;;;;;2630503;30;20799;-78
2021/08/18 10:44:37;;;;;;;16.67;14.97;;;;;;;;;;2632694;30;20365;-77
2021/08/18 10:47:15;;;;;;;16.63;14.83;;;;;;;;;;2631763;30;21039;-77
2021/08/18 10:49:42;;;;;;;16.70;15.10;;;;;;;;;;2630267;30;20509;-78
2021/08/18 10:52:08;;;;;;;15.13;13.53;;;;;;;;;;2632883;30;20481;-77
2021/08/18 10:54:34;;;;;;;15.63;14.00;;;;;;;;;;2629381;38;20436;-78
2021/08/18 10:57:02;;;;;;;16.37;13.33;;;;;;;;;;2630627;38;20423;-78
2021/08/18 10:59:37;;;;;;;13.90;11.80;;;;;;;;;;2629482;38;20366;-78
2021/08/18 11:02:04;;;;;;;14.20;12.70;;;;;;;;;;2628951;31;20365;-78
2021/08/18 11:04:46;;;;;;;12.90;11.27;;;;;;;;;;2629770;30;20394;-78
2021/08/18 11:07:13;;;;;;;13.37;11.27;;;;;;;;;;2629496;38;20385;-78
2021/08/18 11:09:49;;;;;;;12.20;10.97;;;;;;;;;;2629314;38;20377;-78
2021/08/18 11:12:33;;;;;;;13.80;12.50;;;;;;;;;;2628511;38;20370;-77
2021/08/18 11:15:00;;;;;;;11.53;9.80;;;;;;;;;;2628237;38;20401;-78
2021/08/18 11:17:26;;;;;;;13.27;11.77;;;;;;;;;;2632018;30;20925;-78
2021/08/18 11:19:54;;;;;;;11.23;10.07;;;;;;;;;;2630520;38;20378;-78
2021/08/18 11:22:20;;;;;;;10.27;9.27;;;;;;;;;;2630809;30;20382;-78
2021/08/18 11:24:47;;;;;;;7.80;7.10;;;;;;;;;;2630146;38;20358;-78
2021/08/18 11:27:17;;;;;;;5.97;5.50;;;;;;;;;;2630140;30;20416;-79
2021/08/18 11:29:43;;;;;;;6.70;6.10;;;;;;;;;;2631181;38;20360;-77
2021/08/18 11:32:09;;;;;;;6.03;5.43;;;;;;;;;;2628586;30;21011;-79
2021/08/18 11:34:37;;;;;;;5.33;4.83;;;;;;;;;;2630072;30;20487;-78
2021/08/18 11:37:08;;;;;;;5.77;5.27;;;;;;;;;;2630004;30;20806;-78
2021/08/18 11:39:44;;;;;;;4.93;4.30;;;;;;;;;;2630718;30;20373;-78
2021/08/18 11:42:14;;;;;;;4.47;4.07;;;;;;;;;;2629575;30;20409;-78
2021/08/18 11:44:42;;;;;;;5.63;5.13;;;;;;;;;;2631428;30;21395;-79
2021/08/18 11:47:29;;;;;;;6.50;5.60;;;;;;;;;;2629106;38;20378;-78
2021/08/18 11:49:55;;;;;;;8.57;7.87;;;;;;;;;;2630705;30;20369;-79
2021/08/18 11:52:22;;;;;;;8.57;7.40;;;;;;;;;;2631887;30;20413;-78
2021/08/18 11:55:06;;;;;;;7.87;7.17;;;;;;;;;;2630715;30;21246;-78
2021/08/18 11:57:33;;;;;;;9.00;8.30;;;;;;;;;;2629826;30;20369;-79
2021/08/18 12:00:00;;;;;;;8.90;8.10;;;;;;;;;;2629395;30;20407;-77
2021/08/18 12:02:29;;;;;;;9.07;8.23;;;;;;;;;;2629114;30;20389;-78
2021/08/18 12:04:56;;;;;;;8.43;7.70;;;;;;;;;;2629991;38;20400;-78
2021/08/18 12:07:22;;;;;;;7.53;6.83;;;;;;;;;;2628951;38;20359;-79
2021/08/18 12:10:07;;;;;;;8.07;7.37;;;;;;;;;;2630884;38;20493;-78
2021/08/18 12:12:34;;;;;;;7.07;6.37;;;;;;;;;;2630184;30;20387;-79
2021/08/18 12:15:08;;;;;;;6.70;6.03;;;;;;;;;;2630106;30;20470;-78
2021/08/18 12:17:44;;;;;;;6.03;5.43;;;;;;;;;;2630435;30;20365;-78
2021/08/18 12:20:24;;;;;;;5.80;5.33;;;;;;;;;;2629545;38;20913;-79
2021/08/18 12:22:50;;;;;;;5.80;5.33;;;;;;;;;;2630274;30;20388;-78
2021/08/18 12:25:17;;;;;;;5.50;5.00;;;;;;;;;;2628288;38;20439;-77
2021/08/18 12:27:43;;;;;;;6.87;5.30;;;;;;;;;;2628848;38;20386;-77
2021/08/18 12:30:12;;;;;;;4.73;4.33;;;;;;;;;;2629855;30;20397;-78
2021/08/18 12:32:38;;;;;;;5.20;4.70;;;;;;;;;;2630820;30;20397;-78
2021/08/18 12:35:07;;;;;;;4.53;4.10;;;;;;;;;;2631105;30;20981;-78
2021/08/18 12:37:38;;;;;;;4.17;3.87;;;;;;;;;;2630294;31;20387;-78
2021/08/18 12:40:09;;;;;;;4.17;3.87;;;;;;;;;;2628710;38;20473;-78
2021/08/18 12:42:35;;;;;;;4.20;3.80;;;;;;;;;;2630418;30;20409;-78
2021/08/18 12:45:03;;;;;;;4.17;3.30;;;;;;;;;;2629469;30;20483;-78
2021/08/18 12:47:30;;;;;;;4.07;3.67;;;;;;;;;;2628789;30;20377;-78
2021/08/18 12:49:57;;;;;;;4.53;3.97;;;;;;;;;;2629191;30;20373;-79
2021/08/18 12:52:24;;;;;;;5.07;4.67;;;;;;;;;;2629678;38;20905;-79
2021/08/18 12:54:52;;;;;;;5.63;5.00;;;;;;;;;;2629104;38;20895;-78
2021/08/18 12:57:19;;;;;;;6.90;4.77;;;;;;;;;;2630367;30;20398;-78
2021/08/18 12:59:45;;;;;;;4.93;4.53;;;;;;;;;;2629171;38;20874;-78
2021/08/18 13:02:11;;;;;;;8.10;5.00;;;;;;;;;;2630448;30;20416;-78
2021/08/18 13:04:38;;;;;;;7.77;5.00;;;;;;;;;;2628592;30;20360;-78
2021/08/18 13:07:05;;;;;;;7.60;5.37;;;;;;;;;;2629507;38;20369;-78
2021/08/18 13:09:31;;;;;;;5.93;5.27;;;;;;;;;;2630315;38;20369;-77
2021/08/18 13:11:59;;;;;;;6.07;5.47;;;;;;;;;;2628657;30;21258;-79
2021/08/18 13:14:25;;;;;;;6.17;5.60;;;;;;;;;;2629199;30;21234;-78
2021/08/18 13:16:51;;;;;;;5.80;5.23;;;;;;;;;;2630082;30;20358;-79
2021/08/18 13:19:17;;;;;;;6.43;5.87;;;;;;;;;;2629471;30;20365;-78
2021/08/18 13:21:44;;;;;;;5.90;5.40;;;;;;;;;;2628929;30;20397;-78
2021/08/18 13:24:11;;;;;;;6.87;6.17;;;;;;;;;;2628808;30;20381;-77
2021/08/18 13:26:41;;;;;;;8.77;7.67;;;;;;;;;;2630690;38;20358;-78
2021/08/18 13:29:08;;;;;;;8.27;7.33;;;;;;;;;;2628680;38;20385;-77
2021/08/18 13:31:35;;;;;;;8.13;7.50;;;;;;;;;;2629954;30;20373;-78
2021/08/18 13:34:02;;;;;;;8.10;7.30;;;;;;;;;;2629420;38;20346;-77
2021/08/18 13:36:28;;;;;;;9.17;8.37;;;;;;;;;;2629468;30;20396;-78
2021/08/18 13:38:57;;;;;;;9.53;8.57;;;;;;;;;;2630852;30;20471;-78
2021/08/18 13:41:23;;;;;;;8.60;7.90;;;;;;;;;;2629413;38;20397;-78
2021/08/18 13:43:49;;;;;;;8.23;7.43;;;;;;;;;;2630636;30;20379;-78
2021/08/18 13:46:16;;;;;;;7.83;7.13;;;;;;;;;;2631077;30;20373;-78
2021/08/18 13:48:42;;;;;;;8.50;7.63;;;;;;;;;;2631199;30;20373;-78
2021/08/18 13:51:09;;;;;;;12.23;8.27;;;;;;;;;;2630192;38;20374;-79
2021/08/18 13:53:35;;;;;;;9.47;8.57;;;;;;;;;;2633207;30;21094;-77
2021/08/18 13:56:01;;;;;;;9.33;8.47;;;;;;;;;;2628652;30;21310;-79
2021/08/18 13:58:29;;;;;;;9.80;8.80;;;;;;;;;;2628524;30;20359;-77
2021/08/18 14:00:55;;;;;;;8.97;8.17;;;;;;;;;;2630084;38;20384;-77
2021/08/18 14:03:21;;;;;;;8.27;7.47;;;;;;;;;;2631054;38;20395;-78
2021/08/18 14:05:47;;;;;;;8.73;7.80;;;;;;;;;;2627825;38;20497;-78
2021/08/18 14:08:13;;;;;;;8.00;7.30;;;;;;;;;;2629803;30;20923;-78
2021/08/18 14:10:40;;;;;;;8.20;7.23;;;;;;;;;;2631633;38;20416;-78
2021/08/18 14:13:06;;;;;;;7.40;6.80;;;;;;;;;;2628734;38;20380;-78
2021/08/18 14:15:34;;;;;;;9.63;8.20;;;;;;;;;;2629503;30;21148;-79
2021/08/18 14:18:01;;;;;;;7.90;7.10;;;;;;;;;;2630290;30;20372;-79
2021/08/18 14:20:27;;;;;;;8.43;7.20;;;;;;;;;;2630573;38;20385;-78
2021/08/18 14:22:54;;;;;;;7.40;6.80;;;;;;;;;;2630699;38;20401;-77
2021/08/18 14:25:20;;;;;;;9.00;8.10;;;;;;;;;;2631886;30;20828;-79
2021/08/18 14:27:47;;;;;;;9.00;8.20;;;;;;;;;;2632614;30;20375;-78
2021/08/18 14:30:13;;;;;;;9.33;8.30;;;;;;;;;;2630322;30;20403;-80
2021/08/18 14:32:41;;;;;;;10.30;8.63;;;;;;;;;;2629697;30;20425;-78